sensor_id;sensor_type;location;lat;lon;timestamp;P1;durP1;ratioP1;P2;durP2;ratioP2
34278;SDS011;20538;51.528;9.942;2023-08-07T00:00:35;5.07;;;2.70;;
34278;SDS011;20538;51.528;9.942;2023-08-07T00:03:00;7.35;;;3.20;;
34278;SDS011;20538;51.528;9.942;2023-08-07T00:05:27;10.23;;;2.95;;
34278;SDS011;20538;51.528;9.942;2023-08-07T00:07:53;4.68;;;2.22;;
34278;SDS011;20538;51.528;9.942;2023-08-07T00:10:19;7.45;;;2.55;;
34278;SDS011;20538;51.528;9.942;2023-08-07T00:12:44;4.85;;;2.17;;
34278;SDS011;20538;51.528;9.942;2023-08-07T00:15:10;5.70;;;2.20;;
34278;SDS011;20538;51.528;9.942;2023-08-07T00:17:36;6.60;;;2.60;;
34278;SDS011;20538;51.528;9.942;2023-08-07T00:20:02;5.40;;;2.35;;
34278;SDS011;20538;51.528;9.942;2023-08-07T00:22:29;5.65;;;2.42;;
34278;SDS011;20538;51.528;9.942;2023-08-07T00:24:54;8.93;;;2.50;;
34278;SDS011;20538;51.528;9.942;2023-08-07T00:27:20;4.20;;;2.47;;
34278;SDS011;20538;51.528;9.942;2023-08-07T00:29:46;2.72;;;2.00;;
34278;SDS011;20538;51.528;9.942;2023-08-07T00:32:11;5.93;;;2.25;;
34278;SDS011;20538;51.528;9.942;2023-08-07T00:34:37;5.38;;;2.80;;
34278;SDS011;20538;51.528;9.942;2023-08-07T00:37:03;8.35;;;3.05;;
34278;SDS011;20538;51.528;9.942;2023-08-07T00:39:28;6.78;;;2.90;;
34278;SDS011;20538;51.528;9.942;2023-08-07T00:41:54;4.20;;;2.65;;
34278;SDS011;20538;51.528;9.942;2023-08-07T00:44:20;7.80;;;2.88;;
34278;SDS011;20538;51.528;9.942;2023-08-07T00:46:45;5.82;;;2.60;;
34278;SDS011;20538;51.528;9.942;2023-08-07T00:49:12;5.07;;;2.58;;
34278;SDS011;20538;51.528;9.942;2023-08-07T00:51:38;4.00;;;2.72;;
34278;SDS011;20538;51.528;9.942;2023-08-07T00:54:05;9.52;;;2.78;;
34278;SDS011;20538;51.528;9.942;2023-08-07T00:56:32;6.68;;;2.25;;
34278;SDS011;20538;51.528;9.942;2023-08-07T00:58:59;9.27;;;2.22;;
34278;SDS011;20538;51.528;9.942;2023-08-07T01:01:25;4.25;;;2.70;;
34278;SDS011;20538;51.528;9.942;2023-08-07T01:03:51;5.35;;;2.00;;
34278;SDS011;20538;51.528;9.942;2023-08-07T01:06:17;4.72;;;2.33;;
34278;SDS011;20538;51.528;9.942;2023-08-07T01:08:43;3.35;;;1.85;;
34278;SDS011;20538;51.528;9.942;2023-08-07T01:14:18;3.97;;;2.38;;
34278;SDS011;20538;51.528;9.942;2023-08-07T01:17:06;7.25;;;2.33;;
34278;SDS011;20538;51.528;9.942;2023-08-07T01:19:35;7.88;;;2.28;;
34278;SDS011;20538;51.528;9.942;2023-08-07T01:22:05;5.78;;;2.28;;
34278;SDS011;20538;51.528;9.942;2023-08-07T01:24:32;6.75;;;2.15;;
34278;SDS011;20538;51.528;9.942;2023-08-07T01:27:00;7.07;;;2.60;;
34278;SDS011;20538;51.528;9.942;2023-08-07T01:29:36;7.05;;;2.90;;
34278;SDS011;20538;51.528;9.942;2023-08-07T01:32:14;3.33;;;1.92;;
34278;SDS011;20538;51.528;9.942;2023-08-07T01:34:46;7.28;;;2.35;;
34278;SDS011;20538;51.528;9.942;2023-08-07T01:37:13;8.10;;;2.88;;
34278;SDS011;20538;51.528;9.942;2023-08-07T01:39:39;5.93;;;2.20;;
34278;SDS011;20538;51.528;9.942;2023-08-07T01:42:06;5.68;;;2.45;;
34278;SDS011;20538;51.528;9.942;2023-08-07T01:44:32;3.97;;;2.40;;
34278;SDS011;20538;51.528;9.942;2023-08-07T01:46:58;5.57;;;2.97;;
34278;SDS011;20538;51.528;9.942;2023-08-07T01:49:23;3.72;;;1.95;;
34278;SDS011;20538;51.528;9.942;2023-08-07T01:51:49;3.97;;;2.30;;
34278;SDS011;20538;51.528;9.942;2023-08-07T01:54:15;3.67;;;2.25;;
34278;SDS011;20538;51.528;9.942;2023-08-07T01:56:40;7.22;;;2.72;;
34278;SDS011;20538;51.528;9.942;2023-08-07T01:59:06;4.82;;;2.20;;
34278;SDS011;20538;51.528;9.942;2023-08-07T02:01:32;7.53;;;2.05;;
34278;SDS011;20538;51.528;9.942;2023-08-07T02:03:57;6.88;;;2.10;;
34278;SDS011;20538;51.528;9.942;2023-08-07T02:06:23;10.10;;;3.03;;
34278;SDS011;20538;51.528;9.942;2023-08-07T02:08:48;3.13;;;1.88;;
34278;SDS011;20538;51.528;9.942;2023-08-07T02:11:14;10.13;;;2.20;;
34278;SDS011;20538;51.528;9.942;2023-08-07T02:13:40;3.65;;;1.80;;
34278;SDS011;20538;51.528;9.942;2023-08-07T02:16:05;5.30;;;2.78;;
34278;SDS011;20538;51.528;9.942;2023-08-07T02:18:31;5.18;;;1.50;;
34278;SDS011;20538;51.528;9.942;2023-08-07T02:20:56;4.47;;;1.30;;
34278;SDS011;20538;51.528;9.942;2023-08-07T02:23:22;2.90;;;1.65;;
34278;SDS011;20538;51.528;9.942;2023-08-07T02:25:48;2.25;;;1.35;;
34278;SDS011;20538;51.528;9.942;2023-08-07T02:28:13;2.88;;;1.30;;
34278;SDS011;20538;51.528;9.942;2023-08-07T02:30:39;3.10;;;1.27;;
34278;SDS011;20538;51.528;9.942;2023-08-07T02:33:05;3.08;;;1.33;;
34278;SDS011;20538;51.528;9.942;2023-08-07T02:35:30;5.53;;;1.70;;
34278;SDS011;20538;51.528;9.942;2023-08-07T02:37:56;4.28;;;1.30;;
34278;SDS011;20538;51.528;9.942;2023-08-07T02:40:21;3.28;;;1.40;;
34278;SDS011;20538;51.528;9.942;2023-08-07T02:42:47;1.67;;;1.20;;
34278;SDS011;20538;51.528;9.942;2023-08-07T02:45:13;4.40;;;1.20;;
34278;SDS011;20538;51.528;9.942;2023-08-07T02:47:38;2.83;;;1.20;;
34278;SDS011;20538;51.528;9.942;2023-08-07T02:50:04;2.60;;;1.10;;
34278;SDS011;20538;51.528;9.942;2023-08-07T02:52:30;2.25;;;1.45;;
34278;SDS011;20538;51.528;9.942;2023-08-07T02:54:55;3.15;;;1.17;;
34278;SDS011;20538;51.528;9.942;2023-08-07T02:57:21;1.27;;;1.00;;
34278;SDS011;20538;51.528;9.942;2023-08-07T02:59:47;3.38;;;0.90;;
34278;SDS011;20538;51.528;9.942;2023-08-07T03:02:12;2.78;;;1.00;;
34278;SDS011;20538;51.528;9.942;2023-08-07T03:04:38;1.30;;;0.73;;
34278;SDS011;20538;51.528;9.942;2023-08-07T03:07:03;2.15;;;0.80;;
34278;SDS011;20538;51.528;9.942;2023-08-07T03:09:29;2.95;;;0.60;;
34278;SDS011;20538;51.528;9.942;2023-08-07T03:11:55;2.30;;;0.80;;
34278;SDS011;20538;51.528;9.942;2023-08-07T03:14:20;1.33;;;0.70;;
34278;SDS011;20538;51.528;9.942;2023-08-07T03:16:46;2.78;;;0.77;;
34278;SDS011;20538;51.528;9.942;2023-08-07T03:19:12;1.10;;;0.77;;
34278;SDS011;20538;51.528;9.942;2023-08-07T03:21:37;1.00;;;0.60;;
34278;SDS011;20538;51.528;9.942;2023-08-07T03:24:03;1.35;;;0.50;;
34278;SDS011;20538;51.528;9.942;2023-08-07T03:26:29;1.33;;;0.60;;
34278;SDS011;20538;51.528;9.942;2023-08-07T03:28:55;0.95;;;0.50;;
34278;SDS011;20538;51.528;9.942;2023-08-07T03:31:20;0.98;;;0.43;;
34278;SDS011;20538;51.528;9.942;2023-08-07T03:33:46;0.47;;;0.47;;
34278;SDS011;20538;51.528;9.942;2023-08-07T03:36:12;1.67;;;0.47;;
34278;SDS011;20538;51.528;9.942;2023-08-07T03:38:37;4.22;;;1.08;;
34278;SDS011;20538;51.528;9.942;2023-08-07T03:41:03;1.83;;;0.70;;
34278;SDS011;20538;51.528;9.942;2023-08-07T03:43:29;2.58;;;0.75;;
34278;SDS011;20538;51.528;9.942;2023-08-07T03:45:55;3.47;;;0.60;;
34278;SDS011;20538;51.528;9.942;2023-08-07T03:48:23;2.42;;;0.45;;
34278;SDS011;20538;51.528;9.942;2023-08-07T03:50:49;0.60;;;0.47;;
34278;SDS011;20538;51.528;9.942;2023-08-07T03:53:15;0.93;;;0.50;;
34278;SDS011;20538;51.528;9.942;2023-08-07T03:55:41;0.73;;;0.50;;
34278;SDS011;20538;51.528;9.942;2023-08-07T03:58:07;3.83;;;0.80;;
34278;SDS011;20538;51.528;9.942;2023-08-07T04:00:36;1.42;;;0.50;;
34278;SDS011;20538;51.528;9.942;2023-08-07T04:03:01;0.80;;;0.70;;
34278;SDS011;20538;51.528;9.942;2023-08-07T04:05:27;2.13;;;0.60;;
34278;SDS011;20538;51.528;9.942;2023-08-07T04:07:53;1.00;;;0.68;;
34278;SDS011;20538;51.528;9.942;2023-08-07T04:10:18;1.33;;;0.80;;
34278;SDS011;20538;51.528;9.942;2023-08-07T04:12:44;1.63;;;0.90;;
34278;SDS011;20538;51.528;9.942;2023-08-07T04:15:10;0.63;;;0.55;;
34278;SDS011;20538;51.528;9.942;2023-08-07T04:17:35;2.00;;;0.47;;
34278;SDS011;20538;51.528;9.942;2023-08-07T04:20:01;1.60;;;0.70;;
34278;SDS011;20538;51.528;9.942;2023-08-07T04:22:28;4.38;;;0.60;;
34278;SDS011;20538;51.528;9.942;2023-08-07T04:24:54;2.38;;;0.70;;
34278;SDS011;20538;51.528;9.942;2023-08-07T04:27:19;0.52;;;0.52;;
34278;SDS011;20538;51.528;9.942;2023-08-07T04:29:45;0.90;;;0.52;;
34278;SDS011;20538;51.528;9.942;2023-08-07T04:32:11;2.50;;;0.80;;
34278;SDS011;20538;51.528;9.942;2023-08-07T04:34:36;0.50;;;0.45;;
34278;SDS011;20538;51.528;9.942;2023-08-07T04:37:02;1.10;;;0.60;;
34278;SDS011;20538;51.528;9.942;2023-08-07T04:39:28;0.82;;;0.82;;
34278;SDS011;20538;51.528;9.942;2023-08-07T04:41:53;2.33;;;0.68;;
34278;SDS011;20538;51.528;9.942;2023-08-07T04:44:19;1.02;;;0.77;;
34278;SDS011;20538;51.528;9.942;2023-08-07T04:46:45;1.75;;;0.82;;
34278;SDS011;20538;51.528;9.942;2023-08-07T04:49:10;2.05;;;0.98;;
34278;SDS011;20538;51.528;9.942;2023-08-07T04:51:36;1.38;;;0.90;;
34278;SDS011;20538;51.528;9.942;2023-08-07T04:54:02;1.40;;;0.63;;
34278;SDS011;20538;51.528;9.942;2023-08-07T04:56:27;2.53;;;1.00;;
34278;SDS011;20538;51.528;9.942;2023-08-07T04:58:53;3.72;;;1.10;;
34278;SDS011;20538;51.528;9.942;2023-08-07T05:01:18;3.17;;;1.20;;
34278;SDS011;20538;51.528;9.942;2023-08-07T05:03:44;1.45;;;0.93;;
34278;SDS011;20538;51.528;9.942;2023-08-07T05:06:10;1.83;;;0.90;;
34278;SDS011;20538;51.528;9.942;2023-08-07T05:08:35;1.70;;;1.33;;
34278;SDS011;20538;51.528;9.942;2023-08-07T05:11:01;2.75;;;1.35;;
34278;SDS011;20538;51.528;9.942;2023-08-07T05:13:26;3.25;;;1.50;;
34278;SDS011;20538;51.528;9.942;2023-08-07T05:16:01;3.10;;;1.50;;
34278;SDS011;20538;51.528;9.942;2023-08-07T05:18:27;2.42;;;1.23;;
34278;SDS011;20538;51.528;9.942;2023-08-07T05:20:53;2.60;;;1.45;;
34278;SDS011;20538;51.528;9.942;2023-08-07T05:23:18;2.33;;;1.42;;
34278;SDS011;20538;51.528;9.942;2023-08-07T05:25:45;2.60;;;1.90;;
34278;SDS011;20538;51.528;9.942;2023-08-07T05:28:12;4.22;;;1.80;;
34278;SDS011;20538;51.528;9.942;2023-08-07T05:30:37;3.83;;;1.77;;
34278;SDS011;20538;51.528;9.942;2023-08-07T05:33:03;4.90;;;1.70;;
34278;SDS011;20538;51.528;9.942;2023-08-07T05:35:29;8.20;;;1.67;;
34278;SDS011;20538;51.528;9.942;2023-08-07T05:37:54;3.75;;;1.70;;
34278;SDS011;20538;51.528;9.942;2023-08-07T05:40:20;3.55;;;1.98;;
34278;SDS011;20538;51.528;9.942;2023-08-07T05:42:45;3.72;;;1.83;;
34278;SDS011;20538;51.528;9.942;2023-08-07T05:45:11;2.97;;;2.00;;
34278;SDS011;20538;51.528;9.942;2023-08-07T05:47:37;4.22;;;2.50;;
34278;SDS011;20538;51.528;9.942;2023-08-07T05:50:02;4.22;;;2.25;;
34278;SDS011;20538;51.528;9.942;2023-08-07T05:52:28;5.05;;;2.63;;
34278;SDS011;20538;51.528;9.942;2023-08-07T05:54:54;3.90;;;2.03;;
34278;SDS011;20538;51.528;9.942;2023-08-07T05:57:20;3.95;;;2.00;;
34278;SDS011;20538;51.528;9.942;2023-08-07T05:59:45;4.18;;;2.40;;
34278;SDS011;20538;51.528;9.942;2023-08-07T06:02:11;4.78;;;2.38;;
34278;SDS011;20538;51.528;9.942;2023-08-07T06:04:37;5.35;;;2.22;;
34278;SDS011;20538;51.528;9.942;2023-08-07T06:07:03;3.00;;;2.42;;
34278;SDS011;20538;51.528;9.942;2023-08-07T06:09:29;6.93;;;2.50;;
34278;SDS011;20538;51.528;9.942;2023-08-07T06:11:55;4.13;;;2.13;;
34278;SDS011;20538;51.528;9.942;2023-08-07T06:14:21;4.13;;;2.60;;
34278;SDS011;20538;51.528;9.942;2023-08-07T06:16:46;4.85;;;2.13;;
34278;SDS011;20538;51.528;9.942;2023-08-07T06:19:12;3.10;;;2.35;;
34278;SDS011;20538;51.528;9.942;2023-08-07T06:21:38;7.50;;;2.50;;
34278;SDS011;20538;51.528;9.942;2023-08-07T06:24:04;3.72;;;1.88;;
34278;SDS011;20538;51.528;9.942;2023-08-07T06:26:29;2.97;;;2.00;;
34278;SDS011;20538;51.528;9.942;2023-08-07T06:28:55;3.78;;;1.77;;
34278;SDS011;20538;51.528;9.942;2023-08-07T06:31:21;2.65;;;1.88;;
34278;SDS011;20538;51.528;9.942;2023-08-07T06:33:46;2.70;;;1.70;;
34278;SDS011;20538;51.528;9.942;2023-08-07T06:36:12;3.05;;;1.80;;
34278;SDS011;20538;51.528;9.942;2023-08-07T06:38:38;3.00;;;1.85;;
34278;SDS011;20538;51.528;9.942;2023-08-07T06:41:03;2.03;;;1.25;;
34278;SDS011;20538;51.528;9.942;2023-08-07T06:43:29;2.42;;;1.25;;
34278;SDS011;20538;51.528;9.942;2023-08-07T06:45:56;1.65;;;1.23;;
34278;SDS011;20538;51.528;9.942;2023-08-07T06:48:22;1.48;;;1.00;;
34278;SDS011;20538;51.528;9.942;2023-08-07T06:50:48;1.95;;;1.23;;
34278;SDS011;20538;51.528;9.942;2023-08-07T06:53:16;1.92;;;0.80;;
34278;SDS011;20538;51.528;9.942;2023-08-07T06:55:42;1.90;;;1.50;;
34278;SDS011;20538;51.528;9.942;2023-08-07T06:58:08;2.20;;;1.00;;
34278;SDS011;20538;51.528;9.942;2023-08-07T07:00:35;1.10;;;0.98;;
34278;SDS011;20538;51.528;9.942;2023-08-07T07:03:01;2.85;;;0.93;;
34278;SDS011;20538;51.528;9.942;2023-08-07T07:05:28;2.92;;;1.23;;
34278;SDS011;20538;51.528;9.942;2023-08-07T07:07:55;2.35;;;0.93;;
34278;SDS011;20538;51.528;9.942;2023-08-07T07:10:22;1.83;;;0.80;;
34278;SDS011;20538;51.528;9.942;2023-08-07T07:12:48;5.13;;;1.23;;
34278;SDS011;20538;51.528;9.942;2023-08-07T07:15:13;2.63;;;0.90;;
34278;SDS011;20538;51.528;9.942;2023-08-07T07:17:40;1.95;;;1.05;;
34278;SDS011;20538;51.528;9.942;2023-08-07T07:20:06;1.70;;;1.20;;
34278;SDS011;20538;51.528;9.942;2023-08-07T07:22:34;2.28;;;1.05;;
34278;SDS011;20538;51.528;9.942;2023-08-07T07:25:00;0.82;;;0.77;;
34278;SDS011;20538;51.528;9.942;2023-08-07T07:27:25;2.90;;;0.73;;
34278;SDS011;20538;51.528;9.942;2023-08-07T07:29:51;5.15;;;1.48;;
34278;SDS011;20538;51.528;9.942;2023-08-07T07:32:17;2.35;;;1.20;;
34278;SDS011;20538;51.528;9.942;2023-08-07T07:34:43;1.60;;;1.05;;
34278;SDS011;20538;51.528;9.942;2023-08-07T07:37:08;1.88;;;0.93;;
34278;SDS011;20538;51.528;9.942;2023-08-07T07:39:35;2.05;;;0.90;;
34278;SDS011;20538;51.528;9.942;2023-08-07T07:42:00;2.17;;;1.00;;
34278;SDS011;20538;51.528;9.942;2023-08-07T07:44:26;1.50;;;1.40;;
34278;SDS011;20538;51.528;9.942;2023-08-07T07:46:52;2.10;;;0.85;;
34278;SDS011;20538;51.528;9.942;2023-08-07T07:49:20;3.22;;;1.00;;
34278;SDS011;20538;51.528;9.942;2023-08-07T07:51:46;1.02;;;0.90;;
34278;SDS011;20538;51.528;9.942;2023-08-07T07:54:16;2.78;;;1.02;;
34278;SDS011;20538;51.528;9.942;2023-08-07T07:56:42;1.33;;;1.13;;
34278;SDS011;20538;51.528;9.942;2023-08-07T07:59:08;5.10;;;0.93;;
34278;SDS011;20538;51.528;9.942;2023-08-07T08:01:34;2.97;;;1.10;;
34278;SDS011;20538;51.528;9.942;2023-08-07T08:03:59;1.05;;;0.90;;
34278;SDS011;20538;51.528;9.942;2023-08-07T08:06:25;4.05;;;1.20;;
34278;SDS011;20538;51.528;9.942;2023-08-07T08:08:50;2.38;;;1.30;;
34278;SDS011;20538;51.528;9.942;2023-08-07T08:11:16;2.60;;;1.40;;
34278;SDS011;20538;51.528;9.942;2023-08-07T08:13:42;4.82;;;1.40;;
34278;SDS011;20538;51.528;9.942;2023-08-07T08:16:08;3.35;;;1.73;;
34278;SDS011;20538;51.528;9.942;2023-08-07T08:18:34;2.25;;;1.25;;
34278;SDS011;20538;51.528;9.942;2023-08-07T08:20:59;2.20;;;1.40;;
34278;SDS011;20538;51.528;9.942;2023-08-07T08:23:25;4.47;;;1.30;;
34278;SDS011;20538;51.528;9.942;2023-08-07T08:25:51;2.97;;;1.80;;
34278;SDS011;20538;51.528;9.942;2023-08-07T08:28:16;4.55;;;1.10;;
34278;SDS011;20538;51.528;9.942;2023-08-07T08:30:42;2.80;;;1.20;;
34278;SDS011;20538;51.528;9.942;2023-08-07T08:33:08;3.67;;;1.20;;
34278;SDS011;20538;51.528;9.942;2023-08-07T08:35:37;5.80;;;1.10;;
34278;SDS011;20538;51.528;9.942;2023-08-07T08:38:03;1.92;;;1.05;;
34278;SDS011;20538;51.528;9.942;2023-08-07T08:40:29;1.17;;;0.88;;
34278;SDS011;20538;51.528;9.942;2023-08-07T08:42:59;2.78;;;1.17;;
34278;SDS011;20538;51.528;9.942;2023-08-07T08:45:26;2.55;;;0.90;;
34278;SDS011;20538;51.528;9.942;2023-08-07T08:47:53;0.93;;;0.82;;
34278;SDS011;20538;51.528;9.942;2023-08-07T08:50:22;2.85;;;1.10;;
34278;SDS011;20538;51.528;9.942;2023-08-07T08:52:51;0.82;;;0.60;;
34278;SDS011;20538;51.528;9.942;2023-08-07T08:55:20;0.80;;;0.70;;
34278;SDS011;20538;51.528;9.942;2023-08-07T08:57:46;1.73;;;0.90;;
34278;SDS011;20538;51.528;9.942;2023-08-07T09:00:13;2.33;;;0.50;;
34278;SDS011;20538;51.528;9.942;2023-08-07T09:02:47;0.95;;;0.63;;
34278;SDS011;20538;51.528;9.942;2023-08-07T09:05:17;1.92;;;0.63;;
34278;SDS011;20538;51.528;9.942;2023-08-07T09:07:45;1.10;;;0.65;;
34278;SDS011;20538;51.528;9.942;2023-08-07T09:10:12;1.25;;;0.70;;
34278;SDS011;20538;51.528;9.942;2023-08-07T09:12:40;2.22;;;0.70;;
34278;SDS011;20538;51.528;9.942;2023-08-07T09:15:10;1.48;;;0.75;;
34278;SDS011;20538;51.528;9.942;2023-08-07T09:17:40;0.77;;;0.60;;
34278;SDS011;20538;51.528;9.942;2023-08-07T09:20:08;2.55;;;0.88;;
34278;SDS011;20538;51.528;9.942;2023-08-07T09:22:39;1.52;;;0.52;;
34278;SDS011;20538;51.528;9.942;2023-08-07T09:25:06;2.22;;;0.70;;
34278;SDS011;20538;51.528;9.942;2023-08-07T09:27:32;1.63;;;0.82;;
34278;SDS011;20538;51.528;9.942;2023-08-07T09:29:58;2.08;;;0.77;;
34278;SDS011;20538;51.528;9.942;2023-08-07T09:32:25;5.50;;;0.98;;
34278;SDS011;20538;51.528;9.942;2023-08-07T09:34:53;5.97;;;0.90;;
34278;SDS011;20538;51.528;9.942;2023-08-07T09:37:19;2.70;;;1.10;;
34278;SDS011;20538;51.528;9.942;2023-08-07T09:39:45;5.45;;;0.88;;
34278;SDS011;20538;51.528;9.942;2023-08-07T09:42:13;3.90;;;0.90;;
34278;SDS011;20538;51.528;9.942;2023-08-07T09:44:43;4.32;;;1.30;;
34278;SDS011;20538;51.528;9.942;2023-08-07T09:47:17;1.20;;;0.73;;
34278;SDS011;20538;51.528;9.942;2023-08-07T09:49:44;2.08;;;1.20;;
34278;SDS011;20538;51.528;9.942;2023-08-07T09:52:11;3.00;;;1.17;;
34278;SDS011;20538;51.528;9.942;2023-08-07T09:54:40;4.65;;;1.00;;
34278;SDS011;20538;51.528;9.942;2023-08-07T09:57:06;1.42;;;0.90;;
34278;SDS011;20538;51.528;9.942;2023-08-07T09:59:33;1.52;;;0.80;;
34278;SDS011;20538;51.528;9.942;2023-08-07T10:02:00;4.68;;;0.90;;
34278;SDS011;20538;51.528;9.942;2023-08-07T10:04:29;7.28;;;2.35;;
34278;SDS011;20538;51.528;9.942;2023-08-07T10:06:56;1.63;;;0.90;;
34278;SDS011;20538;51.528;9.942;2023-08-07T10:09:22;3.25;;;1.30;;
34278;SDS011;20538;51.528;9.942;2023-08-07T10:11:49;9.18;;;1.20;;
34278;SDS011;20538;51.528;9.942;2023-08-07T10:14:15;4.53;;;1.25;;
34278;SDS011;20538;51.528;9.942;2023-08-07T10:16:41;3.65;;;0.98;;
34278;SDS011;20538;51.528;9.942;2023-08-07T10:19:08;2.45;;;0.93;;
34278;SDS011;20538;51.528;9.942;2023-08-07T10:21:43;2.70;;;1.00;;
34278;SDS011;20538;51.528;9.942;2023-08-07T10:26:38;2.67;;;1.33;;
34278;SDS011;20538;51.528;9.942;2023-08-07T10:29:09;3.85;;;1.40;;
34278;SDS011;20538;51.528;9.942;2023-08-07T10:31:38;3.95;;;1.35;;
34278;SDS011;20538;51.528;9.942;2023-08-07T10:34:07;4.47;;;1.65;;
34278;SDS011;20538;51.528;9.942;2023-08-07T10:36:35;1.48;;;0.93;;
34278;SDS011;20538;51.528;9.942;2023-08-07T10:39:10;3.10;;;1.35;;
34278;SDS011;20538;51.528;9.942;2023-08-07T10:42:20;3.47;;;1.60;;
34278;SDS011;20538;51.528;9.942;2023-08-07T10:44:30;5.15;;;1.33;;
34278;SDS011;20538;51.528;9.942;2023-08-07T10:47:17;4.85;;;1.40;;
34278;SDS011;20538;51.528;9.942;2023-08-07T10:49:58;4.70;;;1.30;;
34278;SDS011;20538;51.528;9.942;2023-08-07T10:52:24;1.52;;;1.42;;
34278;SDS011;20538;51.528;9.942;2023-08-07T10:54:50;7.78;;;1.80;;
34278;SDS011;20538;51.528;9.942;2023-08-07T10:57:17;4.47;;;1.40;;
34278;SDS011;20538;51.528;9.942;2023-08-07T10:59:50;1.92;;;0.90;;
34278;SDS011;20538;51.528;9.942;2023-08-07T11:02:26;1.65;;;0.90;;
34278;SDS011;20538;51.528;9.942;2023-08-07T11:04:54;4.10;;;1.00;;
34278;SDS011;20538;51.528;9.942;2023-08-07T11:07:24;4.60;;;1.10;;
34278;SDS011;20538;51.528;9.942;2023-08-07T11:09:50;2.95;;;1.23;;
34278;SDS011;20538;51.528;9.942;2023-08-07T11:12:16;7.43;;;1.70;;
34278;SDS011;20538;51.528;9.942;2023-08-07T11:14:42;2.00;;;1.40;;
34278;SDS011;20538;51.528;9.942;2023-08-07T11:17:07;4.25;;;1.48;;
34278;SDS011;20538;51.528;9.942;2023-08-07T11:19:33;2.90;;;1.33;;
34278;SDS011;20538;51.528;9.942;2023-08-07T11:21:58;6.43;;;1.30;;
34278;SDS011;20538;51.528;9.942;2023-08-07T11:24:26;2.83;;;1.17;;
34278;SDS011;20538;51.528;9.942;2023-08-07T11:26:52;4.65;;;1.20;;
34278;SDS011;20538;51.528;9.942;2023-08-07T11:29:21;6.90;;;1.88;;
34278;SDS011;20538;51.528;9.942;2023-08-07T11:31:49;4.90;;;1.30;;
34278;SDS011;20538;51.528;9.942;2023-08-07T11:34:18;4.13;;;1.30;;
34278;SDS011;20538;51.528;9.942;2023-08-07T11:36:45;4.00;;;1.10;;
34278;SDS011;20538;51.528;9.942;2023-08-07T11:39:13;3.22;;;1.02;;
34278;SDS011;20538;51.528;9.942;2023-08-07T11:41:39;3.60;;;1.45;;
34278;SDS011;20538;51.528;9.942;2023-08-07T11:44:07;3.25;;;1.45;;
34278;SDS011;20538;51.528;9.942;2023-08-07T11:46:33;6.05;;;2.20;;
34278;SDS011;20538;51.528;9.942;2023-08-07T11:48:59;2.65;;;1.20;;
34278;SDS011;20538;51.528;9.942;2023-08-07T11:51:28;5.57;;;1.38;;
34278;SDS011;20538;51.528;9.942;2023-08-07T11:53:54;2.58;;;1.25;;
34278;SDS011;20538;51.528;9.942;2023-08-07T11:56:22;2.25;;;1.10;;
34278;SDS011;20538;51.528;9.942;2023-08-07T11:58:48;1.60;;;1.10;;
34278;SDS011;20538;51.528;9.942;2023-08-07T12:01:17;6.00;;;2.10;;
34278;SDS011;20538;51.528;9.942;2023-08-07T12:06:17;4.32;;;1.92;;
34278;SDS011;20538;51.528;9.942;2023-08-07T12:08:43;3.42;;;1.38;;
34278;SDS011;20538;51.528;9.942;2023-08-07T12:11:09;4.03;;;1.30;;
34278;SDS011;20538;51.528;9.942;2023-08-07T12:13:38;8.02;;;1.50;;
34278;SDS011;20538;51.528;9.942;2023-08-07T12:16:05;5.40;;;1.42;;
34278;SDS011;20538;51.528;9.942;2023-08-07T12:18:32;3.88;;;1.70;;
34278;SDS011;20538;51.528;9.942;2023-08-07T12:20:59;5.10;;;1.60;;
34278;SDS011;20538;51.528;9.942;2023-08-07T12:23:26;5.03;;;1.73;;
34278;SDS011;20538;51.528;9.942;2023-08-07T12:25:52;6.55;;;1.95;;
34278;SDS011;20538;51.528;9.942;2023-08-07T12:28:18;7.93;;;1.83;;
34278;SDS011;20538;51.528;9.942;2023-08-07T12:30:47;5.75;;;1.60;;
34278;SDS011;20538;51.528;9.942;2023-08-07T12:33:13;5.20;;;2.08;;
34278;SDS011;20538;51.528;9.942;2023-08-07T12:35:42;5.00;;;2.00;;
34278;SDS011;20538;51.528;9.942;2023-08-07T12:38:08;10.32;;;1.60;;
34278;SDS011;20538;51.528;9.942;2023-08-07T12:40:35;18.13;;;3.13;;
34278;SDS011;20538;51.528;9.942;2023-08-07T12:43:05;7.30;;;2.22;;
34278;SDS011;20538;51.528;9.942;2023-08-07T12:45:31;7.18;;;2.42;;
34278;SDS011;20538;51.528;9.942;2023-08-07T12:47:56;5.57;;;2.05;;
34278;SDS011;20538;51.528;9.942;2023-08-07T12:50:23;7.10;;;2.20;;
34278;SDS011;20538;51.528;9.942;2023-08-07T12:52:49;5.60;;;2.40;;
34278;SDS011;20538;51.528;9.942;2023-08-07T12:55:15;8.18;;;2.55;;
34278;SDS011;20538;51.528;9.942;2023-08-07T12:57:41;5.53;;;2.13;;
34278;SDS011;20538;51.528;9.942;2023-08-07T13:00:08;7.95;;;2.72;;
34278;SDS011;20538;51.528;9.942;2023-08-07T13:02:40;5.75;;;2.40;;
34278;SDS011;20538;51.528;9.942;2023-08-07T13:05:11;8.02;;;2.00;;
34278;SDS011;20538;51.528;9.942;2023-08-07T13:07:37;5.32;;;2.00;;
34278;SDS011;20538;51.528;9.942;2023-08-07T13:10:04;4.35;;;1.70;;
34278;SDS011;20538;51.528;9.942;2023-08-07T13:12:33;4.32;;;1.98;;
34278;SDS011;20538;51.528;9.942;2023-08-07T13:15:05;10.45;;;3.03;;
34278;SDS011;20538;51.528;9.942;2023-08-07T13:17:33;7.78;;;2.60;;
34278;SDS011;20538;51.528;9.942;2023-08-07T13:20:00;10.20;;;2.78;;
34278;SDS011;20538;51.528;9.942;2023-08-07T13:22:27;7.90;;;2.55;;
34278;SDS011;20538;51.528;9.942;2023-08-07T13:24:53;7.18;;;2.33;;
34278;SDS011;20538;51.528;9.942;2023-08-07T13:27:22;9.07;;;2.47;;
34278;SDS011;20538;51.528;9.942;2023-08-07T13:29:47;11.93;;;3.10;;
34278;SDS011;20538;51.528;9.942;2023-08-07T13:32:13;16.20;;;2.65;;
34278;SDS011;20538;51.528;9.942;2023-08-07T13:34:40;10.63;;;2.63;;
34278;SDS011;20538;51.528;9.942;2023-08-07T13:37:06;5.65;;;2.20;;
34278;SDS011;20538;51.528;9.942;2023-08-07T13:39:33;7.35;;;2.35;;
34278;SDS011;20538;51.528;9.942;2023-08-07T13:41:59;8.98;;;2.58;;
34278;SDS011;20538;51.528;9.942;2023-08-07T13:44:25;11.52;;;2.58;;
34278;SDS011;20538;51.528;9.942;2023-08-07T13:46:51;4.93;;;2.30;;
34278;SDS011;20538;51.528;9.942;2023-08-07T13:49:17;8.77;;;2.67;;
34278;SDS011;20538;51.528;9.942;2023-08-07T13:51:45;6.57;;;2.50;;
34278;SDS011;20538;51.528;9.942;2023-08-07T13:54:12;11.77;;;2.35;;
34278;SDS011;20538;51.528;9.942;2023-08-07T13:56:38;8.90;;;2.72;;
34278;SDS011;20538;51.528;9.942;2023-08-07T13:59:04;7.05;;;2.67;;
34278;SDS011;20538;51.528;9.942;2023-08-07T14:01:29;8.50;;;2.75;;
34278;SDS011;20538;51.528;9.942;2023-08-07T14:03:56;11.90;;;2.58;;
34278;SDS011;20538;51.528;9.942;2023-08-07T14:06:21;10.98;;;2.80;;
34278;SDS011;20538;51.528;9.942;2023-08-07T14:08:47;10.52;;;2.50;;
34278;SDS011;20538;51.528;9.942;2023-08-07T14:11:13;8.02;;;2.30;;
34278;SDS011;20538;51.528;9.942;2023-08-07T14:13:40;7.70;;;2.78;;
34278;SDS011;20538;51.528;9.942;2023-08-07T14:16:06;6.78;;;2.38;;
34278;SDS011;20538;51.528;9.942;2023-08-07T14:18:32;12.15;;;2.90;;
34278;SDS011;20538;51.528;9.942;2023-08-07T14:20:58;8.88;;;2.20;;
34278;SDS011;20538;51.528;9.942;2023-08-07T14:23:23;7.78;;;2.50;;
34278;SDS011;20538;51.528;9.942;2023-08-07T14:25:49;8.80;;;2.60;;
34278;SDS011;20538;51.528;9.942;2023-08-07T14:28:16;9.50;;;2.40;;
34278;SDS011;20538;51.528;9.942;2023-08-07T14:30:42;9.93;;;2.85;;
34278;SDS011;20538;51.528;9.942;2023-08-07T14:33:07;7.30;;;2.67;;
34278;SDS011;20538;51.528;9.942;2023-08-07T14:35:33;8.38;;;2.60;;
34278;SDS011;20538;51.528;9.942;2023-08-07T14:37:59;4.97;;;2.25;;
34278;SDS011;20538;51.528;9.942;2023-08-07T14:40:25;9.32;;;2.40;;
34278;SDS011;20538;51.528;9.942;2023-08-07T14:42:53;8.65;;;3.28;;
34278;SDS011;20538;51.528;9.942;2023-08-07T14:45:20;12.05;;;3.08;;
34278;SDS011;20538;51.528;9.942;2023-08-07T14:47:47;9.80;;;2.63;;
34278;SDS011;20538;51.528;9.942;2023-08-07T14:50:13;6.50;;;2.63;;
34278;SDS011;20538;51.528;9.942;2023-08-07T14:52:41;5.47;;;2.58;;